sensor_id;sensor_type;location;lat;lon;timestamp;temperature;humidity
18339;DHT22;9295;44.484;11.240;2023-04-03T00:00:08;8.50;99.90
18339;DHT22;9295;44.484;11.240;2023-04-03T00:02:37;8.50;99.90
18339;DHT22;9295;44.484;11.240;2023-04-03T00:05:06;8.50;99.90
18339;DHT22;9295;44.484;11.240;2023-04-03T00:07:36;8.50;99.90
18339;DHT22;9295;44.484;11.240;2023-04-03T00:10:05;8.50;99.90
18339;DHT22;9295;44.484;11.240;2023-04-03T00:12:33;8.60;99.90
18339;DHT22;9295;44.484;11.240;2023-04-03T00:15:02;8.60;99.90
18339;DHT22;9295;44.484;11.240;2023-04-03T00:17:31;8.60;99.90
18339;DHT22;9295;44.484;11.240;2023-04-03T00:19:59;8.60;99.90
18339;DHT22;9295;44.484;11.240;2023-04-03T00:22:27;8.50;99.90
18339;DHT22;9295;44.484;11.240;2023-04-03T00:24:57;8.60;99.90
18339;DHT22;9295;44.484;11.240;2023-04-03T00:27:26;8.60;99.90
18339;DHT22;9295;44.484;11.240;2023-04-03T00:29:54;8.60;99.90
18339;DHT22;9295;44.484;11.240;2023-04-03T00:32:22;8.60;99.90
18339;DHT22;9295;44.484;11.240;2023-04-03T00:34:51;8.60;99.90
18339;DHT22;9295;44.484;11.240;2023-04-03T00:37:19;8.50;99.90
18339;DHT22;9295;44.484;11.240;2023-04-03T00:39:47;8.50;99.90
18339;DHT22;9295;44.484;11.240;2023-04-03T00:42:17;8.50;99.90
18339;DHT22;9295;44.484;11.240;2023-04-03T00:48:10;8.40;99.90
18339;DHT22;9295;44.484;11.240;2023-04-03T00:50:41;8.40;99.90
18339;DHT22;9295;44.484;11.240;2023-04-03T00:53:12;8.30;99.90
18339;DHT22;9295;44.484;11.240;2023-04-03T00:55:43;8.30;99.90
18339;DHT22;9295;44.484;11.240;2023-04-03T00:58:16;8.40;99.90
18339;DHT22;9295;44.484;11.240;2023-04-03T01:00:50;8.40;99.90
18339;DHT22;9295;44.484;11.240;2023-04-03T01:03:23;8.40;99.90
18339;DHT22;9295;44.484;11.240;2023-04-03T01:05:53;8.40;99.90
18339;DHT22;9295;44.484;11.240;2023-04-03T01:08:21;8.40;99.90
18339;DHT22;9295;44.484;11.240;2023-04-03T01:10:50;8.40;99.90
18339;DHT22;9295;44.484;11.240;2023-04-03T01:13:24;8.40;99.90
18339;DHT22;9295;44.484;11.240;2023-04-03T01:15:53;8.40;99.90
18339;DHT22;9295;44.484;11.240;2023-04-03T01:18:23;8.40;99.90
18339;DHT22;9295;44.484;11.240;2023-04-03T01:24:05;8.30;99.90
18339;DHT22;9295;44.484;11.240;2023-04-03T01:26:37;8.20;99.90
18339;DHT22;9295;44.484;11.240;2023-04-03T01:29:07;8.20;99.90
18339;DHT22;9295;44.484;11.240;2023-04-03T01:31:47;8.20;99.90
18339;DHT22;9295;44.484;11.240;2023-04-03T01:34:16;8.10;99.90
18339;DHT22;9295;44.484;11.240;2023-04-03T01:36:45;8.20;99.90
18339;DHT22;9295;44.484;11.240;2023-04-03T01:39:13;8.10;99.90
18339;DHT22;9295;44.484;11.240;2023-04-03T01:41:42;8.10;99.90
18339;DHT22;9295;44.484;11.240;2023-04-03T01:44:16;8.10;99.90
18339;DHT22;9295;44.484;11.240;2023-04-03T01:46:46;8.10;99.90
18339;DHT22;9295;44.484;11.240;2023-04-03T01:49:14;8.10;99.90
18339;DHT22;9295;44.484;11.240;2023-04-03T01:51:43;8.10;99.90
18339;DHT22;9295;44.484;11.240;2023-04-03T01:54:11;8.10;99.90
18339;DHT22;9295;44.484;11.240;2023-04-03T01:56:40;8.00;99.90
18339;DHT22;9295;44.484;11.240;2023-04-03T01:59:08;8.00;99.90
18339;DHT22;9295;44.484;11.240;2023-04-03T02:01:37;8.00;99.90
18339;DHT22;9295;44.484;11.240;2023-04-03T02:04:07;8.00;99.90
18339;DHT22;9295;44.484;11.240;2023-04-03T02:06:35;8.00;99.90
18339;DHT22;9295;44.484;11.240;2023-04-03T02:09:04;8.00;99.90
18339;DHT22;9295;44.484;11.240;2023-04-03T02:11:32;8.00;99.90
18339;DHT22;9295;44.484;11.240;2023-04-03T02:14:01;8.00;99.90
18339;DHT22;9295;44.484;11.240;2023-04-03T02:16:29;8.00;99.90
18339;DHT22;9295;44.484;11.240;2023-04-03T02:18:58;8.10;99.90
18339;DHT22;9295;44.484;11.240;2023-04-03T02:21:28;8.10;99.90
18339;DHT22;9295;44.484;11.240;2023-04-03T02:23:56;8.10;99.90
18339;DHT22;9295;44.484;11.240;2023-04-03T02:26:25;8.10;99.90
18339;DHT22;9295;44.484;11.240;2023-04-03T02:28:53;8.10;99.90
18339;DHT22;9295;44.484;11.240;2023-04-03T02:31:21;8.10;99.90
18339;DHT22;9295;44.484;11.240;2023-04-03T02:33:52;8.20;99.90
18339;DHT22;9295;44.484;11.240;2023-04-03T02:36:20;8.20;99.90
18339;DHT22;9295;44.484;11.240;2023-04-03T02:38:54;8.30;99.90
18339;DHT22;9295;44.484;11.240;2023-04-03T02:41:23;8.30;99.90
18339;DHT22;9295;44.484;11.240;2023-04-03T02:43:53;8.30;99.90
18339;DHT22;9295;44.484;11.240;2023-04-03T02:46:22;8.30;99.90
18339;DHT22;9295;44.484;11.240;2023-04-03T02:48:50;8.40;99.90
18339;DHT22;9295;44.484;11.240;2023-04-03T02:51:19;8.40;99.90
18339;DHT22;9295;44.484;11.240;2023-04-03T02:53:47;8.50;99.90
18339;DHT22;9295;44.484;11.240;2023-04-03T02:56:21;8.50;99.90
18339;DHT22;9295;44.484;11.240;2023-04-03T02:58:50;8.60;99.90
18339;DHT22;9295;44.484;11.240;2023-04-03T03:01:19;8.50;99.90
18339;DHT22;9295;44.484;11.240;2023-04-03T03:03:47;8.50;99.90
18339;DHT22;9295;44.484;11.240;2023-04-03T03:06:17;8.40;99.90
18339;DHT22;9295;44.484;11.240;2023-04-03T03:08:45;8.40;99.90
18339;DHT22;9295;44.484;11.240;2023-04-03T03:11:14;8.30;99.90
18339;DHT22;9295;44.484;11.240;2023-04-03T03:13:44;8.30;99.90
18339;DHT22;9295;44.484;11.240;2023-04-03T03:16:12;8.30;99.90
18339;DHT22;9295;44.484;11.240;2023-04-03T03:18:41;8.30;99.90
18339;DHT22;9295;44.484;11.240;2023-04-03T03:21:10;8.30;99.90
18339;DHT22;9295;44.484;11.240;2023-04-03T03:23:39;8.30;99.90
18339;DHT22;9295;44.484;11.240;2023-04-03T03:26:09;8.30;99.90
18339;DHT22;9295;44.484;11.240;2023-04-03T03:28:38;8.30;99.90
18339;DHT22;9295;44.484;11.240;2023-04-03T03:31:09;8.30;99.90
18339;DHT22;9295;44.484;11.240;2023-04-03T03:33:39;8.20;99.90
18339;DHT22;9295;44.484;11.240;2023-04-03T03:36:08;8.30;99.90
18339;DHT22;9295;44.484;11.240;2023-04-03T03:38:37;8.30;99.90
18339;DHT22;9295;44.484;11.240;2023-04-03T03:41:06;8.30;99.90
18339;DHT22;9295;44.484;11.240;2023-04-03T03:43:35;8.30;99.90
18339;DHT22;9295;44.484;11.240;2023-04-03T03:46:05;8.30;99.90
18339;DHT22;9295;44.484;11.240;2023-04-03T03:48:35;8.30;99.90
18339;DHT22;9295;44.484;11.240;2023-04-03T03:51:03;8.30;99.90
18339;DHT22;9295;44.484;11.240;2023-04-03T03:53:35;8.30;99.90
18339;DHT22;9295;44.484;11.240;2023-04-03T03:56:07;8.30;99.90
18339;DHT22;9295;44.484;11.240;2023-04-03T03:58:37;8.20;99.90
18339;DHT22;9295;44.484;11.240;2023-04-03T04:01:07;8.20;99.90
18339;DHT22;9295;44.484;11.240;2023-04-03T04:03:42;8.20;99.90
18339;DHT22;9295;44.484;11.240;2023-04-03T04:06:15;8.30;99.90
18339;DHT22;9295;44.484;11.240;2023-04-03T04:08:43;8.30;99.90
18339;DHT22;9295;44.484;11.240;2023-04-03T04:11:13;8.40;99.90
18339;DHT22;9295;44.484;11.240;2023-04-03T04:13:43;8.30;99.90
18339;DHT22;9295;44.484;11.240;2023-04-03T04:16:13;8.40;99.90
18339;DHT22;9295;44.484;11.240;2023-04-03T04:18:44;8.30;99.90
18339;DHT22;9295;44.484;11.240;2023-04-03T04:21:12;8.30;99.90
18339;DHT22;9295;44.484;11.240;2023-04-03T04:23:41;8.30;99.90
18339;DHT22;9295;44.484;11.240;2023-04-03T04:26:10;8.30;99.90
18339;DHT22;9295;44.484;11.240;2023-04-03T04:28:40;8.40;99.90
18339;DHT22;9295;44.484;11.240;2023-04-03T04:31:08;8.40;99.90
18339;DHT22;9295;44.484;11.240;2023-04-03T04:33:37;8.30;99.90
18339;DHT22;9295;44.484;11.240;2023-04-03T04:36:10;8.30;99.90
18339;DHT22;9295;44.484;11.240;2023-04-03T04:38:39;8.30;99.90
18339;DHT22;9295;44.484;11.240;2023-04-03T04:41:08;8.30;99.90
18339;DHT22;9295;44.484;11.240;2023-04-03T04:43:37;8.40;99.90
18339;DHT22;9295;44.484;11.240;2023-04-03T04:46:07;8.30;99.90
18339;DHT22;9295;44.484;11.240;2023-04-03T04:48:42;8.30;99.90
18339;DHT22;9295;44.484;11.240;2023-04-03T04:51:13;8.30;99.90
18339;DHT22;9295;44.484;11.240;2023-04-03T04:53:42;8.30;99.90
18339;DHT22;9295;44.484;11.240;2023-04-03T04:56:13;8.30;99.90
18339;DHT22;9295;44.484;11.240;2023-04-03T04:58:43;8.30;99.90
18339;DHT22;9295;44.484;11.240;2023-04-03T05:01:11;8.30;99.90
18339;DHT22;9295;44.484;11.240;2023-04-03T05:03:48;8.30;99.90
18339;DHT22;9295;44.484;11.240;2023-04-03T05:06:19;8.30;99.90
18339;DHT22;9295;44.484;11.240;2023-04-03T05:08:48;8.30;99.90
18339;DHT22;9295;44.484;11.240;2023-04-03T05:11:17;8.30;99.90
18339;DHT22;9295;44.484;11.240;2023-04-03T05:13:49;8.40;99.90
18339;DHT22;9295;44.484;11.240;2023-04-03T05:16:18;8.40;99.90
18339;DHT22;9295;44.484;11.240;2023-04-03T05:18:46;8.40;99.90
18339;DHT22;9295;44.484;11.240;2023-04-03T05:21:20;8.40;99.90
18339;DHT22;9295;44.484;11.240;2023-04-03T05:23:51;8.50;99.90
18339;DHT22;9295;44.484;11.240;2023-04-03T05:26:20;8.40;99.90
18339;DHT22;9295;44.484;11.240;2023-04-03T05:28:50;8.50;99.90
18339;DHT22;9295;44.484;11.240;2023-04-03T05:31:19;8.50;99.90
18339;DHT22;9295;44.484;11.240;2023-04-03T05:33:49;8.50;99.90
18339;DHT22;9295;44.484;11.240;2023-04-03T05:36:19;8.60;99.90
18339;DHT22;9295;44.484;11.240;2023-04-03T05:38:53;8.60;99.90
18339;DHT22;9295;44.484;11.240;2023-04-03T05:41:24;8.70;99.90
18339;DHT22;9295;44.484;11.240;2023-04-03T05:43:53;8.80;99.90
18339;DHT22;9295;44.484;11.240;2023-04-03T05:46:23;8.80;99.90
18339;DHT22;9295;44.484;11.240;2023-04-03T05:48:55;9.00;99.90
18339;DHT22;9295;44.484;11.240;2023-04-03T05:51:32;9.10;99.90
18339;DHT22;9295;44.484;11.240;2023-04-03T05:54:12;9.30;99.90
18339;DHT22;9295;44.484;11.240;2023-04-03T05:56:42;9.60;99.90
18339;DHT22;9295;44.484;11.240;2023-04-03T05:59:10;9.80;99.90
18339;DHT22;9295;44.484;11.240;2023-04-03T06:01:39;10.10;99.90
18339;DHT22;9295;44.484;11.240;2023-04-03T06:04:08;10.50;99.90
18339;DHT22;9295;44.484;11.240;2023-04-03T06:06:46;10.90;99.90
18339;DHT22;9295;44.484;11.240;2023-04-03T06:09:15;11.00;99.90
18339;DHT22;9295;44.484;11.240;2023-04-03T06:11:44;12.20;99.90
18339;DHT22;9295;44.484;11.240;2023-04-03T06:14:13;14.40;99.90
18339;DHT22;9295;44.484;11.240;2023-04-03T06:16:41;14.40;99.90
18339;DHT22;9295;44.484;11.240;2023-04-03T06:19:11;14.00;99.90
18339;DHT22;9295;44.484;11.240;2023-04-03T06:21:46;14.20;99.90
18339;DHT22;9295;44.484;11.240;2023-04-03T06:24:16;15.60;99.90
18339;DHT22;9295;44.484;11.240;2023-04-03T06:26:45;16.10;99.90
18339;DHT22;9295;44.484;11.240;2023-04-03T06:29:13;16.60;99.90
18339;DHT22;9295;44.484;11.240;2023-04-03T06:31:41;16.40;99.90
18339;DHT22;9295;44.484;11.240;2023-04-03T06:34:10;15.70;99.90
18339;DHT22;9295;44.484;11.240;2023-04-03T06:36:39;16.10;99.90
18339;DHT22;9295;44.484;11.240;2023-04-03T06:39:13;16.20;99.90
18339;DHT22;9295;44.484;11.240;2023-04-03T06:41:42;17.60;99.90
18339;DHT22;9295;44.484;11.240;2023-04-03T06:44:10;19.40;99.90
18339;DHT22;9295;44.484;11.240;2023-04-03T06:46:40;21.20;99.90
18339;DHT22;9295;44.484;11.240;2023-04-03T06:49:08;22.40;99.90
18339;DHT22;9295;44.484;11.240;2023-04-03T06:51:37;23.50;99.90
18339;DHT22;9295;44.484;11.240;2023-04-03T06:54:06;24.10;99.80
18339;DHT22;9295;44.484;11.240;2023-04-03T06:56:36;25.10;98.20
18339;DHT22;9295;44.484;11.240;2023-04-03T06:59:05;25.50;94.00
18339;DHT22;9295;44.484;11.240;2023-04-03T07:01:34;26.20;91.80
18339;DHT22;9295;44.484;11.240;2023-04-03T07:04:02;27.00;88.10
18339;DHT22;9295;44.484;11.240;2023-04-03T07:06:30;27.10;85.20
18339;DHT22;9295;44.484;11.240;2023-04-03T07:09:00;27.50;79.40
18339;DHT22;9295;44.484;11.240;2023-04-03T07:11:29;27.70;75.80
18339;DHT22;9295;44.484;11.240;2023-04-03T07:13:59;27.30;71.70
18339;DHT22;9295;44.484;11.240;2023-04-03T07:16:28;27.30;73.90
18339;DHT22;9295;44.484;11.240;2023-04-03T07:18:58;27.80;72.20
18339;DHT22;9295;44.484;11.240;2023-04-03T07:21:26;27.80;69.60
18339;DHT22;9295;44.484;11.240;2023-04-03T07:23:55;28.10;67.80
18339;DHT22;9295;44.484;11.240;2023-04-03T07:26:23;28.00;66.50
18339;DHT22;9295;44.484;11.240;2023-04-03T07:28:52;28.10;65.70
18339;DHT22;9295;44.484;11.240;2023-04-03T07:31:22;28.20;64.80
18339;DHT22;9295;44.484;11.240;2023-04-03T07:33:50;28.00;65.00
18339;DHT22;9295;44.484;11.240;2023-04-03T07:36:21;28.10;64.20
18339;DHT22;9295;44.484;11.240;2023-04-03T07:38:49;28.10;63.80
18339;DHT22;9295;44.484;11.240;2023-04-03T07:41:19;28.10;64.00
18339;DHT22;9295;44.484;11.240;2023-04-03T07:43:49;28.20;63.60
18339;DHT22;9295;44.484;11.240;2023-04-03T07:46:19;28.20;63.40
18339;DHT22;9295;44.484;11.240;2023-04-03T07:48:49;28.40;63.30
18339;DHT22;9295;44.484;11.240;2023-04-03T07:51:17;28.60;63.00
18339;DHT22;9295;44.484;11.240;2023-04-03T07:53:46;28.20;62.40
18339;DHT22;9295;44.484;11.240;2023-04-03T07:56:16;28.10;63.80
18339;DHT22;9295;44.484;11.240;2023-04-03T07:58:45;28.60;63.50
18339;DHT22;9295;44.484;11.240;2023-04-03T08:01:13;28.70;62.90
18339;DHT22;9295;44.484;11.240;2023-04-03T08:03:42;28.60;62.30
18339;DHT22;9295;44.484;11.240;2023-04-03T08:06:12;28.20;62.70
18339;DHT22;9295;44.484;11.240;2023-04-03T08:08:44;28.40;63.10
18339;DHT22;9295;44.484;11.240;2023-04-03T08:11:12;28.60;62.60
18339;DHT22;9295;44.484;11.240;2023-04-03T08:13:41;27.50;62.70
18339;DHT22;9295;44.484;11.240;2023-04-03T08:16:11;27.50;64.70
18339;DHT22;9295;44.484;11.240;2023-04-03T08:18:40;27.80;63.90
18339;DHT22;9295;44.484;11.240;2023-04-03T08:21:10;26.20;64.10
18339;DHT22;9295;44.484;11.240;2023-04-03T08:23:40;26.10;68.60
18339;DHT22;9295;44.484;11.240;2023-04-03T08:26:10;26.40;68.20
18339;DHT22;9295;44.484;11.240;2023-04-03T08:28:39;25.50;67.10
18339;DHT22;9295;44.484;11.240;2023-04-03T08:31:10;24.10;71.90
18339;DHT22;9295;44.484;11.240;2023-04-03T08:33:39;22.70;79.10
18339;DHT22;9295;44.484;11.240;2023-04-03T08:36:17;20.80;86.80
18339;DHT22;9295;44.484;11.240;2023-04-03T08:38:48;20.30;92.30
18339;DHT22;9295;44.484;11.240;2023-04-03T08:41:20;18.90;94.60
18339;DHT22;9295;44.484;11.240;2023-04-03T08:44:10;18.60;96.50
18339;DHT22;9295;44.484;11.240;2023-04-03T08:46:52;17.90;98.20
18339;DHT22;9295;44.484;11.240;2023-04-03T08:49:25;17.50;99.90
18339;DHT22;9295;44.484;11.240;2023-04-03T08:51:56;17.40;99.90
18339;DHT22;9295;44.484;11.240;2023-04-03T08:54:32;17.40;99.90
18339;DHT22;9295;44.484;11.240;2023-04-03T08:57:03;17.00;99.90
18339;DHT22;9295;44.484;11.240;2023-04-03T08:59:35;16.80;99.90
18339;DHT22;9295;44.484;11.240;2023-04-03T09:02:18;16.60;99.90
18339;DHT22;9295;44.484;11.240;2023-04-03T09:04:50;16.10;99.90
18339;DHT22;9295;44.484;11.240;2023-04-03T09:07:23;15.60;99.90
18339;DHT22;9295;44.484;11.240;2023-04-03T09:09:55;15.40;99.90
18339;DHT22;9295;44.484;11.240;2023-04-03T09:12:32;15.10;99.90
18339;DHT22;9295;44.484;11.240;2023-04-03T09:15:08;15.00;99.90
18339;DHT22;9295;44.484;11.240;2023-04-03T09:17:44;15.10;99.90
18339;DHT22;9295;44.484;11.240;2023-04-03T09:20:20;15.10;99.90
18339;DHT22;9295;44.484;11.240;2023-04-03T09:22:51;15.20;99.90
18339;DHT22;9295;44.484;11.240;2023-04-03T09:25:23;15.00;99.90
18339;DHT22;9295;44.484;11.240;2023-04-03T09:27:52;14.90;99.90
18339;DHT22;9295;44.484;11.240;2023-04-03T09:30:22;14.80;99.90
18339;DHT22;9295;44.484;11.240;2023-04-03T09:32:52;14.50;99.90
18339;DHT22;9295;44.484;11.240;2023-04-03T09:35:24;14.40;99.90
18339;DHT22;9295;44.484;11.240;2023-04-03T09:38:20;14.30;99.90
18339;DHT22;9295;44.484;11.240;2023-04-03T09:40:51;14.30;99.90
18339;DHT22;9295;44.484;11.240;2023-04-03T09:43:31;14.40;99.90
18339;DHT22;9295;44.484;11.240;2023-04-03T09:46:21;14.40;99.90
18339;DHT22;9295;44.484;11.240;2023-04-03T09:48:56;14.30;99.90
18339;DHT22;9295;44.484;11.240;2023-04-03T09:51:35;14.30;99.90
18339;DHT22;9295;44.484;11.240;2023-04-03T09:54:25;14.00;99.90
18339;DHT22;9295;44.484;11.240;2023-04-03T09:56:57;13.80;99.90
18339;DHT22;9295;44.484;11.240;2023-04-03T09:59:28;13.80;99.90
18339;DHT22;9295;44.484;11.240;2023-04-03T10:01:59;13.70;99.90
18339;DHT22;9295;44.484;11.240;2023-04-03T10:04:38;13.50;99.90
18339;DHT22;9295;44.484;11.240;2023-04-03T10:07:29;13.50;99.90
18339;DHT22;9295;44.484;11.240;2023-04-03T10:10:00;13.60;99.90
18339;DHT22;9295;44.484;11.240;2023-04-03T10:12:31;13.60;99.90
18339;DHT22;9295;44.484;11.240;2023-04-03T10:15:00;13.60;99.90
18339;DHT22;9295;44.484;11.240;2023-04-03T10:17:51;13.80;99.90
18339;DHT22;9295;44.484;11.240;2023-04-03T10:20:29;13.80;99.90
18339;DHT22;9295;44.484;11.240;2023-04-03T10:23:09;13.60;99.90
18339;DHT22;9295;44.484;11.240;2023-04-03T10:25:49;13.60;99.90
18339;DHT22;9295;44.484;11.240;2023-04-03T10:28:25;13.60;99.90
18339;DHT22;9295;44.484;11.240;2023-04-03T10:31:01;13.70;99.90
18339;DHT22;9295;44.484;11.240;2023-04-03T10:33:42;13.80;99.90
18339;DHT22;9295;44.484;11.240;2023-04-03T10:36:23;14.30;99.90
18339;DHT22;9295;44.484;11.240;2023-04-03T10:39:00;14.50;99.90
18339;DHT22;9295;44.484;11.240;2023-04-03T10:41:39;15.00;99.90
18339;DHT22;9295;44.484;11.240;2023-04-03T10:44:17;15.00;99.90
18339;DHT22;9295;44.484;11.240;2023-04-03T10:46:50;15.00;99.90
18339;DHT22;9295;44.484;11.240;2023-04-03T10:49:34;14.90;99.90
18339;DHT22;9295;44.484;11.240;2023-04-03T10:52:14;14.80;99.90
18339;DHT22;9295;44.484;11.240;2023-04-03T10:54:50;14.80;99.90
18339;DHT22;9295;44.484;11.240;2023-04-03T10:57:24;14.70;99.90
18339;DHT22;9295;44.484;11.240;2023-04-03T10:59:57;14.20;99.90
18339;DHT22;9295;44.484;11.240;2023-04-03T11:02:28;14.30;99.90
18339;DHT22;9295;44.484;11.240;2023-04-03T11:05:02;14.50;99.90
18339;DHT22;9295;44.484;11.240;2023-04-03T11:07:37;14.50;99.90
18339;DHT22;9295;44.484;11.240;2023-04-03T11:10:11;14.50;99.90
18339;DHT22;9295;44.484;11.240;2023-04-03T11:12:44;14.50;99.90
18339;DHT22;9295;44.484;11.240;2023-04-03T11:15:17;14.60;99.90
18339;DHT22;9295;44.484;11.240;2023-04-03T11:17:49;14.80;99.90
18339;DHT22;9295;44.484;11.240;2023-04-03T11:20:23;14.80;99.90
18339;DHT22;9295;44.484;11.240;2023-04-03T11:23:00;14.70;99.90
18339;DHT22;9295;44.484;11.240;2023-04-03T11:25:32;14.80;99.90
18339;DHT22;9295;44.484;11.240;2023-04-03T11:28:04;14.90;99.90
18339;DHT22;9295;44.484;11.240;2023-04-03T11:30:42;15.10;99.90
18339;DHT22;9295;44.484;11.240;2023-04-03T11:33:37;15.20;99.90
18339;DHT22;9295;44.484;11.240;2023-04-03T11:36:13;15.30;99.90
18339;DHT22;9295;44.484;11.240;2023-04-03T11:38:57;15.10;99.90
18339;DHT22;9295;44.484;11.240;2023-04-03T11:41:29;14.90;99.90
18339;DHT22;9295;44.484;11.240;2023-04-03T11:44:00;14.90;99.90
18339;DHT22;9295;44.484;11.240;2023-04-03T11:46:51;14.60;99.90
18339;DHT22;9295;44.484;11.240;2023-04-03T11:52:57;14.50;99.90
18339;DHT22;9295;44.484;11.240;2023-04-03T11:55:55;14.60;99.90
18339;DHT22;9295;44.484;11.240;2023-04-03T11:58:26;14.20;99.90
18339;DHT22;9295;44.484;11.240;2023-04-03T12:09:58;14.50;99.90
18339;DHT22;9295;44.484;11.240;2023-04-03T12:12:37;14.50;99.90
18339;DHT22;9295;44.484;11.240;2023-04-03T12:15:19;14.40;99.90
18339;DHT22;9295;44.484;11.240;2023-04-03T12:17:49;14.40;99.90
18339;DHT22;9295;44.484;11.240;2023-04-03T12:20:52;14.50;99.90
18339;DHT22;9295;44.484;11.240;2023-04-03T12:23:30;14.70;99.90
18339;DHT22;9295;44.484;11.240;2023-04-03T12:26:20;14.80;99.90
18339;DHT22;9295;44.484;11.240;2023-04-03T12:28:51;14.90;99.90
18339;DHT22;9295;44.484;11.240;2023-04-03T12:31:24;14.90;99.90
18339;DHT22;9295;44.484;11.240;2023-04-03T12:34:09;14.80;99.90
18339;DHT22;9295;44.484;11.240;2023-04-03T12:36:51;14.90;99.90
18339;DHT22;9295;44.484;11.240;2023-04-03T12:39:59;15.00;99.90
18339;DHT22;9295;44.484;11.240;2023-04-03T12:43:05;15.10;99.90
18339;DHT22;9295;44.484;11.240;2023-04-03T12:45:41;15.40;99.90
18339;DHT22;9295;44.484;11.240;2023-04-03T12:48:15;15.50;99.60
18339;DHT22;9295;44.484;11.240;2023-04-03T12:50:46;15.50;99.40
18339;DHT22;9295;44.484;11.240;2023-04-03T12:53:18;15.30;99.70
18339;DHT22;9295;44.484;11.240;2023-04-03T12:55:47;15.20;99.70
18339;DHT22;9295;44.484;11.240;2023-04-03T12:58:22;15.20;99.90
18339;DHT22;9295;44.484;11.240;2023-04-03T13:01:01;15.20;98.90
18339;DHT22;9295;44.484;11.240;2023-04-03T13:03:30;15.20;99.70
18339;DHT22;9295;44.484;11.240;2023-04-03T13:06:01;15.20;99.20
18339;DHT22;9295;44.484;11.240;2023-04-03T13:08:31;15.30;98.90
18339;DHT22;9295;44.484;11.240;2023-04-03T13:11:01;15.30;98.50
18339;DHT22;9295;44.484;11.240;2023-04-03T13:13:32;15.40;98.80
18339;DHT22;9295;44.484;11.240;2023-04-03T13:16:07;15.50;98.30
18339;DHT22;9295;44.484;11.240;2023-04-03T13:18:38;15.40;98.20
18339;DHT22;9295;44.484;11.240;2023-04-03T13:21:08;15.30;97.70
18339;DHT22;9295;44.484;11.240;2023-04-03T13:23:44;15.40;97.90
18339;DHT22;9295;44.484;11.240;2023-04-03T13:26:15;15.40;97.60
18339;DHT22;9295;44.484;11.240;2023-04-03T13:28:47;15.60;97.60
18339;DHT22;9295;44.484;11.240;2023-04-03T13:31:23;15.70;97.10
18339;DHT22;9295;44.484;11.240;2023-04-03T13:33:56;15.70;97.70
18339;DHT22;9295;44.484;11.240;2023-04-03T13:36:28;15.50;96.90
18339;DHT22;9295;44.484;11.240;2023-04-03T13:38:59;15.40;97.50
18339;DHT22;9295;44.484;11.240;2023-04-03T13:41:31;15.60;97.70
18339;DHT22;9295;44.484;11.240;2023-04-03T13:44:16;15.60;97.50
18339;DHT22;9295;44.484;11.240;2023-04-03T13:46:45;15.40;97.00
18339;DHT22;9295;44.484;11.240;2023-04-03T13:49:21;15.10;97.30
18339;DHT22;9295;44.484;11.240;2023-04-03T13:51:50;15.30;97.20
18339;DHT22;9295;44.484;11.240;2023-04-03T13:54:35;15.30;96.80
18339;DHT22;9295;44.484;11.240;2023-04-03T13:57:12;15.20;96.90
18339;DHT22;9295;44.484;11.240;2023-04-03T13:59:43;14.90;97.30
18339;DHT22;9295;44.484;11.240;2023-04-03T14:02:16;14.90;97.60
18339;DHT22;9295;44.484;11.240;2023-04-03T14:04:49;14.90;97.30
18339;DHT22;9295;44.484;11.240;2023-04-03T14:07:17;14.90;97.30
18339;DHT22;9295;44.484;11.240;2023-04-03T14:09:48;14.60;97.40
18339;DHT22;9295;44.484;11.240;2023-04-03T14:12:18;14.50;97.70
18339;DHT22;9295;44.484;11.240;2023-04-03T14:15:00;14.60;97.80
18339;DHT22;9295;44.484;11.240;2023-04-03T14:17:29;14.80;97.60
18339;DHT22;9295;44.484;11.240;2023-04-03T14:19:58;14.80;97.20
18339;DHT22;9295;44.484;11.240;2023-04-03T14:22:30;14.90;96.90
18339;DHT22;9295;44.484;11.240;2023-04-03T14:24:59;14.80;97.10
18339;DHT22;9295;44.484;11.240;2023-04-03T14:27:31;14.70;96.80
18339;DHT22;9295;44.484;11.240;2023-04-03T14:30:04;14.80;96.50
18339;DHT22;9295;44.484;11.240;2023-04-03T14:32:33;14.60;96.00
18339;DHT22;9295;44.484;11.240;2023-04-03T14:35:02;14.50;96.20
18339;DHT22;9295;44.484;11.240;2023-04-03T14:37:31;14.70;96.60
18339;DHT22;9295;44.484;11.240;2023-04-03T14:40:02;14.90;96.00
18339;DHT22;9295;44.484;11.240;2023-04-03T14:42:34;14.90;95.40
18339;DHT22;9295;44.484;11.240;2023-04-03T14:45:06;14.60;95.40
18339;DHT22;9295;44.484;11.240;2023-04-03T14:47:40;14.60;95.50
18339;DHT22;9295;44.484;11.240;2023-04-03T14:50:14;14.60;95.50
18339;DHT22;9295;44.484;11.240;2023-04-03T14:52:44;14.70;96.00
18339;DHT22;9295;44.484;11.240;2023-04-03T14:55:15;14.80;95.50
18339;DHT22;9295;44.484;11.240;2023-04-03T14:57:46;14.80;94.90
18339;DHT22;9295;44.484;11.240;2023-04-03T15:00:17;14.80;95.00
18339;DHT22;9295;44.484;11.240;2023-04-03T15:02:49;14.80;95.40
18339;DHT22;9295;44.484;11.240;2023-04-03T15:05:18;14.90;94.90
18339;DHT22;9295;44.484;11.240;2023-04-03T15:07:50;14.80;95.00
18339;DHT22;9295;44.484;11.240;2023-04-03T15:10:22;14.80;95.00
18339;DHT22;9295;44.484;11.240;2023-04-03T15:12:52;14.80;93.70
18339;DHT22;9295;44.484;11.240;2023-04-03T15:15:23;14.70;94.10
18339;DHT22;9295;44.484;11.240;2023-04-03T15:17:53;14.50;95.00
18339;DHT22;9295;44.484;11.240;2023-04-03T15:20:25;14.60;95.00
18339;DHT22;9295;44.484;11.240;2023-04-03T15:22:54;14.80;95.40
18339;DHT22;9295;44.484;11.240;2023-04-03T15:25:24;14.70;95.70
18339;DHT22;9295;44.484;11.240;2023-04-03T15:27:53;14.70;95.90
18339;DHT22;9295;44.484;11.240;2023-04-03T15:30:23;14.60;95.90
18339;DHT22;9295;44.484;11.240;2023-04-03T15:32:51;14.60;96.20
18339;DHT22;9295;44.484;11.240;2023-04-03T15:35:20;14.50;96.20
18339;DHT22;9295;44.484;11.240;2023-04-03T15:37:49;14.60;96.40
18339;DHT22;9295;44.484;11.240;2023-04-03T15:40:18;14.70;96.10
18339;DHT22;9295;44.484;11.240;2023-04-03T15:42:46;14.60;95.30
18339;DHT22;9295;44.484;11.240;2023-04-03T15:45:17;14.70;95.40
18339;DHT22;9295;44.484;11.240;2023-04-03T15:47:46;14.70;95.80
18339;DHT22;9295;44.484;11.240;2023-04-03T15:50:15;14.80;96.00
18339;DHT22;9295;44.484;11.240;2023-04-03T15:52:44;14.80;95.70
18339;DHT22;9295;44.484;11.240;2023-04-03T15:55:12;14.80;95.40
18339;DHT22;9295;44.484;11.240;2023-04-03T15:57:40;14.50;95.20
18339;DHT22;9295;44.484;11.240;2023-04-03T16:00:10;14.50;95.20
18339;DHT22;9295;44.484;11.240;2023-04-03T16:02:39;14.40;95.50
18339;DHT22;9295;44.484;11.240;2023-04-03T16:05:10;14.40;95.60
18339;DHT22;9295;44.484;11.240;2023-04-03T16:07:39;14.40;95.40
18339;DHT22;9295;44.484;11.240;2023-04-03T16:10:09;14.20;95.30
18339;DHT22;9295;44.484;11.240;2023-04-03T16:12:37;14.20;95.60
18339;DHT22;9295;44.484;11.240;2023-04-03T16:15:07;14.30;95.60
18339;DHT22;9295;44.484;11.240;2023-04-03T16:17:37;14.30;95.50
18339;DHT22;9295;44.484;11.240;2023-04-03T16:20:08;14.20;94.90
18339;DHT22;9295;44.484;11.240;2023-04-03T16:22:38;14.10;95.40
18339;DHT22;9295;44.484;11.240;2023-04-03T16:25:08;14.00;95.00